Time;durP1;ratioP1;P1;durP2;ratioP2;P2;SDS_P1;SDS_P2;PMS_P1;PMS_P2;Temp;Humidity;BMP_temperature;BMP_pressure;BME280_temperature;BME280_humidity;BME280_pressure;Samples;Min_cycle;Max_cycle;Signal;HPM_P1;HPM_P2
2022/07/31 00:00:28;;;;;;;2.72;1.20;;;28.20;29.80;;;;;;6297793;28;20055;-74
2022/07/31 00:03:29;;;;;;;1.70;1.20;;;28.20;29.90;;;;;;6300490;28;20037;-75
2022/07/31 00:06:30;;;;;;;2.17;1.33;;;28.10;29.90;;;;;;6299427;28;20044;-75
2022/07/31 00:09:31;;;;;;;3.10;2.05;;;28.10;29.90;;;;;;6300429;28;20353;-75
2022/07/31 00:12:33;;;;;;;4.03;1.05;;;28.10;29.90;;;;;;6299348;28;20416;-75
2022/07/31 00:15:34;;;;;;;2.17;1.30;;;28.00;30.00;;;;;;6298669;28;20032;-74
2022/07/31 00:18:35;;;;;;;1.58;1.17;;;28.00;30.00;;;;;;6282737;28;20032;-75
2022/07/31 00:21:36;;;;;;;2.17;0.85;;;27.80;30.10;;;;;;6299104;28;20033;-75
2022/07/31 00:24:37;;;;;;;4.43;1.10;;;27.80;30.20;;;;;;6282132;28;20028;-75
2022/07/31 00:27:39;;;;;;;6.95;1.27;;;27.70;30.40;;;;;;6299872;28;20048;-75
2022/07/31 00:30:40;;;;;;;4.95;1.73;;;27.70;30.50;;;;;;6281698;28;20044;-75
2022/07/31 00:33:41;;;;;;;2.83;1.70;;;27.70;30.60;;;;;;6281560;28;20044;-75
2022/07/31 00:36:42;;;;;;;2.33;1.70;;;27.60;30.50;;;;;;6280806;28;20037;-74
2022/07/31 00:39:43;;;;;;;3.75;1.50;;;27.60;30.70;;;;;;6294700;28;20373;-75
2022/07/31 00:42:44;;;;;;;4.03;1.38;;;27.60;30.90;;;;;;6296634;28;20074;-74
2022/07/31 00:45:46;;;;;;;3.88;1.15;;;27.60;30.90;;;;;;6273281;28;20033;-75
2022/07/31 00:48:47;;;;;;;1.48;1.10;;;27.60;31.10;;;;;;6256691;28;20044;-75
2022/07/31 00:51:48;;;;;;;2.72;1.52;;;27.60;31.20;;;;;;6273650;28;20037;-74
2022/07/31 00:54:49;;;;;;;2.95;1.50;;;27.60;31.20;;;;;;6272856;28;20069;-74
2022/07/31 00:57:50;;;;;;;2.63;1.30;;;27.60;31.30;;;;;;6289908;28;20381;-75
2022/07/31 01:00:51;;;;;;;4.82;1.20;;;27.60;31.40;;;;;;6290169;28;20041;-74
2022/07/31 01:03:52;;;;;;;1.83;1.27;;;27.60;31.50;;;;;;6299367;28;20421;-75
2022/07/31 01:06:54;;;;;;;1.20;1.00;;;27.50;31.60;;;;;;6297828;28;20048;-75
2022/07/31 01:09:57;;;;;;;4.13;1.52;;;27.50;31.90;;;;;;6280809;28;20540;-75
2022/07/31 01:13:04;;;;;;;6.10;1.33;;;27.40;32.10;;;;;;6292853;28;20136;-74
2022/07/31 01:16:08;;;;;;;7.37;1.57;;;27.40;32.40;;;;;;6273814;28;20124;-75
2022/07/31 01:19:20;;;;;;;2.13;1.70;;;27.30;32.50;;;;;;6274280;28;20287;-74
2022/07/31 01:22:56;;;;;;;1.75;1.23;;;27.20;32.70;;;;;;6273840;28;20036;-74
2022/07/31 01:26:01;;;;;;;;;;;27.10;33.00;;;;;;6190302;28;20470;-74
2022/07/31 01:29:39;;;;;;;1.58;1.10;;;27.10;33.10;;;;;;6238405;28;19913;-74
2022/07/31 01:32:45;;;;;;;2.13;1.50;;;27.00;33.20;;;;;;6218952;28;20148;-74
2022/07/31 01:35:54;;;;;;;2.50;1.48;;;27.00;33.40;;;;;;6213081;28;20034;-74
2022/07/31 01:38:56;;;;;;;4.40;1.48;;;27.00;33.60;;;;;;6229281;28;20040;-74
2022/07/31 01:42:01;;;;;;;2.85;1.77;;;26.90;33.60;;;;;;6241521;28;20125;-74
2022/07/31 01:45:04;;;;;;;1.98;1.40;;;26.90;33.80;;;;;;6266402;28;20033;-74
2022/07/31 01:48:07;;;;;;;5.47;1.80;;;26.90;33.70;;;;;;6253001;28;20104;-75
2022/07/31 01:51:12;;;;;;;2.63;1.65;;;26.80;33.80;;;;;;6275284;28;20135;-76
2022/07/31 01:54:15;;;;;;;5.82;1.52;;;26.80;33.80;;;;;;6262084;28;20041;-75
2022/07/31 01:57:17;;;;;;;3.45;1.88;;;26.80;33.90;;;;;;6252018;28;20458;-75
2022/07/31 02:00:20;;;;;;;3.10;1.77;;;26.80;34.70;;;;;;6258491;28;20437;-75
2022/07/31 02:03:23;;;;;;;3.90;1.65;;;26.70;34.20;;;;;;6303689;28;20044;-76
2022/07/31 02:06:26;;;;;;;2.30;1.63;;;26.70;34.40;;;;;;6294429;28;20048;-75
2022/07/31 02:09:28;;;;;;;3.60;1.65;;;26.60;34.50;;;;;;6278438;28;20096;-75
2022/07/31 02:12:30;;;;;;;3.13;2.10;;;26.50;34.70;;;;;;6277413;28;20535;-75
2022/07/31 02:15:33;;;;;;;2.22;1.60;;;26.50;34.80;;;;;;6270148;28;20457;-75
2022/07/31 02:18:40;;;;;;;5.15;1.60;;;26.40;35.00;;;;;;6269799;28;20032;-75
2022/07/31 02:21:48;;;;;;;2.40;1.45;;;26.40;35.20;;;;;;6254566;28;20029;-75
2022/07/31 02:24:50;;;;;;;3.70;1.30;;;26.40;35.30;;;;;;6292823;28;20036;-75
2022/07/31 02:27:51;;;;;;;1.60;1.15;;;26.30;35.40;;;;;;6278259;28;20055;-75
2022/07/31 02:30:53;;;;;;;2.88;1.52;;;26.30;35.50;;;;;;6293958;28;20056;-76
2022/07/31 02:33:54;;;;;;;2.75;1.40;;;26.20;35.50;;;;;;6276406;28;20078;-75
2022/07/31 02:36:57;;;;;;;4.25;1.40;;;26.10;35.60;;;;;;6276270;28;20165;-75
2022/07/31 02:40:00;;;;;;;4.53;1.60;;;26.10;35.80;;;;;;6303410;28;20049;-76
2022/07/31 02:43:02;;;;;;;2.70;1.52;;;26.00;35.90;;;;;;6275033;28;20029;-74
2022/07/31 02:46:06;;;;;;;4.07;1.30;;;26.00;36.10;;;;;;6279216;28;20086;-74
2022/07/31 02:49:08;;;;;;;2.13;1.40;;;25.90;36.20;;;;;;6295881;28;20123;-74
2022/07/31 02:52:09;;;;;;;2.70;1.50;;;25.80;36.20;;;;;;6279396;28;20047;-76
2022/07/31 02:55:10;;;;;;;2.85;1.42;;;25.70;36.10;;;;;;6296095;28;20466;-75
2022/07/31 02:58:11;;;;;;;2.70;1.85;;;25.70;36.40;;;;;;6295116;28;20036;-75
2022/07/31 03:01:13;;;;;;;1.60;1.10;;;25.70;36.70;;;;;;6277941;28;20062;-75
2022/07/31 03:04:15;;;;;;;3.38;1.42;;;25.70;36.80;;;;;;6294760;28;20036;-75
2022/07/31 03:07:16;;;;;;;3.13;1.50;;;25.60;36.90;;;;;;6294654;28;20484;-75
2022/07/31 03:10:18;;;;;;;2.90;1.40;;;25.60;36.90;;;;;;6293996;28;20051;-75
2022/07/31 03:13:40;;;;;;;2.95;1.50;;;25.60;37.20;;;;;;6283932;28;20404;-76
2022/07/31 03:16:42;;;;;;;2.35;1.30;;;25.50;37.30;;;;;;6268309;28;20036;-75
2022/07/31 03:19:43;;;;;;;2.55;1.35;;;25.50;38.10;;;;;;6268228;28;20073;-74
2022/07/31 03:22:45;;;;;;;1.88;1.40;;;25.40;37.70;;;;;;6284880;28;20044;-75
2022/07/31 03:25:49;;;;;;;4.95;1.60;;;25.40;38.00;;;;;;6268243;28;20033;-75
2022/07/31 03:28:50;;;;;;;3.00;1.45;;;25.40;38.20;;;;;;6251329;28;20037;-75
2022/07/31 03:31:50;;;;;;;3.70;1.40;;;25.40;38.40;;;;;;6261811;28;20460;-76
2022/07/31 03:34:51;;;;;;;2.10;1.45;;;25.40;38.70;;;;;;6297178;28;20044;-76
2022/07/31 03:37:52;;;;;;;5.18;1.50;;;25.30;38.90;;;;;;6297794;28;20033;-75
2022/07/31 03:40:53;;;;;;;2.83;1.70;;;25.30;39.00;;;;;;6296268;28;20468;-76
2022/07/31 03:43:54;;;;;;;6.20;1.40;;;25.20;39.10;;;;;;6283624;28;20473;-76
2022/07/31 03:46:56;;;;;;;2.40;1.63;;;25.20;39.10;;;;;;6254045;28;20044;-76
2022/07/31 03:49:59;;;;;;;1.85;1.30;;;25.20;39.10;;;;;;6254768;28;20037;-76
2022/07/31 03:53:01;;;;;;;2.95;1.60;;;25.20;39.00;;;;;;6271157;28;20655;-74
2022/07/31 03:56:05;;;;;;;3.78;1.50;;;25.10;39.00;;;;;;6226135;28;1306756;-74
2022/07/31 03:59:06;;;;;;;4.63;1.65;;;25.10;39.30;;;;;;6255346;28;20036;-74
2022/07/31 04:02:09;;;;;;;3.30;1.60;;;25.10;39.40;;;;;;6283067;28;20067;-74
2022/07/31 04:05:16;;;;;;;3.72;1.45;;;25.00;39.40;;;;;;6294603;28;20045;-74
2022/07/31 04:08:17;;;;;;;2.72;1.27;;;25.00;39.40;;;;;;6282702;28;20480;-75
2022/07/31 04:11:19;;;;;;;6.97;1.92;;;25.00;39.30;;;;;;6279420;28;20101;-74
2022/07/31 04:14:20;;;;;;;3.00;1.35;;;25.00;39.30;;;;;;6266102;28;20041;-75
2022/07/31 04:17:21;;;;;;;3.47;1.85;;;24.90;39.30;;;;;;6259982;28;20113;-74
2022/07/31 04:20:22;;;;;;;2.33;1.50;;;24.90;39.40;;;;;;6297118;28;20040;-74
2022/07/31 04:23:23;;;;;;;2.10;1.30;;;24.80;39.40;;;;;;6280671;28;20025;-74
2022/07/31 04:26:44;;;;;;;1.88;1.30;;;24.80;39.50;;;;;;6205488;28;20428;-73
2022/07/31 04:29:48;;;;;;;2.83;1.50;;;24.80;39.60;;;;;;6187478;28;20034;-74
2022/07/31 04:32:49;;;;;;;5.20;1.60;;;24.70;39.60;;;;;;6188545;28;20041;-74
2022/07/31 04:35:56;;;;;;;3.38;1.70;;;24.70;39.60;;;;;;6216781;28;20056;-73
2022/07/31 04:38:58;;;;;;;3.97;2.20;;;24.70;39.60;;;;;;6204630;28;20038;-74
2022/07/31 04:42:00;;;;;;;1.85;1.40;;;24.70;39.60;;;;;;6223634;28;20065;-74
2022/07/31 04:45:02;;;;;;;1.77;1.48;;;24.70;39.70;;;;;;6221116;28;20049;-74
2022/07/31 04:48:03;;;;;;;3.40;1.45;;;24.70;39.70;;;;;;6221003;28;20360;-74
2022/07/31 04:51:04;;;;;;;4.38;1.75;;;24.70;39.80;;;;;;6204874;28;20457;-74
2022/07/31 04:54:06;;;;;;;4.07;1.83;;;24.70;40.00;;;;;;6188593;28;20042;-74
2022/07/31 04:57:07;;;;;;;1.80;1.23;;;24.70;40.10;;;;;;6204596;28;20065;-74
2022/07/31 05:00:09;;;;;;;13.45;1.63;;;24.60;40.20;;;;;;6188204;28;20054;-74
2022/07/31 05:03:10;;;;;;;3.83;1.40;;;24.60;40.40;;;;;;6219455;28;20037;-74
2022/07/31 05:06:11;;;;;;;3.28;1.35;;;24.60;40.50;;;;;;6279560;28;20033;-74
2022/07/31 05:09:15;;;;;;;4.97;1.30;;;24.60;40.40;;;;;;6295599;28;20036;-74
2022/07/31 05:12:17;;;;;;;1.50;1.40;;;24.60;40.30;;;;;;6295684;28;20102;-74
2022/07/31 05:15:17;;;;;;;2.83;1.83;;;24.60;40.20;;;;;;6271674;28;20037;-74
2022/07/31 05:18:18;;;;;;;3.00;1.65;;;24.50;40.20;;;;;;6271038;28;20449;-74
2022/07/31 05:21:38;;;;;;;1.92;1.70;;;24.50;40.30;;;;;;6269270;28;20036;-74
2022/07/31 05:24:58;;;;;;;3.55;1.70;;;24.50;40.30;;;;;;6269869;28;20053;-74
2022/07/31 05:27:59;;;;;;;4.60;1.88;;;24.40;40.50;;;;;;6269058;28;20045;-74
2022/07/31 05:31:00;;;;;;;2.45;1.65;;;24.40;40.50;;;;;;6270793;28;20074;-74
2022/07/31 05:34:01;;;;;;;9.15;2.17;;;24.40;40.50;;;;;;6276909;28;20319;-74
2022/07/31 05:37:04;;;;;;;4.13;1.60;;;24.40;40.50;;;;;;6277513;28;20110;-74
2022/07/31 05:40:07;;;;;;;2.17;1.67;;;24.40;40.60;;;;;;6293434;28;20040;-74
2022/07/31 05:43:28;;;;;;;2.00;1.50;;;24.40;40.60;;;;;;6242869;28;20045;-75
2022/07/31 05:46:41;;;;;;;6.63;1.70;;;24.50;40.80;;;;;;6242346;28;20037;-73
2022/07/31 05:49:41;;;;;;;4.50;1.60;;;24.50;40.80;;;;;;6242435;28;20092;-75
2022/07/31 05:52:43;;;;;;;2.70;1.67;;;24.40;40.60;;;;;;6242085;28;20536;-74
2022/07/31 05:56:02;;;;;;;;;;;24.50;40.60;;;;;;6242366;28;20042;-74
2022/07/31 05:59:14;;;;;;;2.15;1.55;;;24.50;40.60;;;;;;6226288;28;19913;-75
2022/07/31 06:02:15;;;;;;;3.83;1.58;;;24.60;40.50;;;;;;6229266;28;20052;-74
2022/07/31 06:05:43;;;;;;;2.88;1.92;;;24.60;40.50;;;;;;6254310;28;20477;-75
2022/07/31 06:08:44;;;;;;;4.70;1.92;;;24.70;40.40;;;;;;6266301;28;20044;-75
2022/07/31 06:11:45;;;;;;;3.10;1.67;;;24.70;40.30;;;;;;6266974;28;20363;-75
2022/07/31 06:14:46;;;;;;;3.17;1.42;;;24.80;40.20;;;;;;6222111;28;20122;-75
2022/07/31 06:18:08;;;;;;;2.03;1.60;;;24.80;40.00;;;;;;6227982;28;20030;-75
2022/07/31 06:21:28;;;;;;;4.40;1.85;;;24.90;39.90;;;;;;6249762;28;20106;-74
2022/07/31 06:24:31;;;;;;;4.82;1.85;;;25.00;39.70;;;;;;6234230;28;20041;-75
2022/07/31 06:27:31;;;;;;;4.22;2.13;;;25.00;39.70;;;;;;6249690;28;20124;-75
2022/07/31 06:30:33;;;;;;;5.88;1.45;;;25.10;39.80;;;;;;6224498;28;20033;-75
2022/07/31 06:33:34;;;;;;;2.40;1.60;;;25.20;39.90;;;;;;6264025;28;20044;-74
2022/07/31 06:36:35;;;;;;;3.92;1.75;;;25.20;39.70;;;;;;6249370;28;20160;-74
2022/07/31 06:39:37;;;;;;;3.40;1.63;;;25.30;39.70;;;;;;6249398;28;20037;-74
2022/07/31 06:42:38;;;;;;;4.30;1.60;;;25.40;39.50;;;;;;6266253;28;20047;-75
2022/07/31 06:45:41;;;;;;;3.25;2.10;;;25.40;39.20;;;;;;6249449;28;20052;-75
2022/07/31 06:49:01;;;;;;;3.85;1.65;;;25.50;39.10;;;;;;6266003;28;20044;-75
2022/07/31 06:52:02;;;;;;;4.30;2.00;;;25.70;39.00;;;;;;6253831;28;20469;-75
2022/07/31 06:55:05;;;;;;;1.77;1.50;;;25.80;38.90;;;;;;6267248;28;20367;-75
2022/07/31 06:58:06;;;;;;;5.15;1.40;;;25.90;38.60;;;;;;6267376;28;20028;-75
2022/07/31 07:01:07;;;;;;;1.83;1.40;;;26.00;38.10;;;;;;6269655;28;20040;-75
2022/07/31 07:04:08;;;;;;;3.30;1.50;;;26.00;37.80;;;;;;6274497;28;20056;-73
2022/07/31 07:07:09;;;;;;;2.70;1.40;;;26.10;37.40;;;;;;6274652;28;20037;-75
2022/07/31 07:10:10;;;;;;;2.00;1.38;;;26.20;37.40;;;;;;6307755;28;20472;-74
2022/07/31 07:13:37;;;;;;;3.47;1.40;;;26.20;37.20;;;;;;6290008;28;20033;-76
2022/07/31 07:16:37;;;;;;;6.40;1.48;;;26.40;37.10;;;;;;6272979;28;20140;-74
2022/07/31 07:19:40;;;;;;;3.53;1.63;;;26.50;36.80;;;;;;6302619;28;20048;-75
2022/07/31 07:22:42;;;;;;;1.90;1.30;;;26.60;36.50;;;;;;6278328;28;20084;-74
2022/07/31 07:25:46;;;;;;;1.67;1.38;;;26.70;36.20;;;;;;6273729;28;20480;-74
2022/07/31 07:28:48;;;;;;;2.55;1.30;;;26.80;36.10;;;;;;6289843;28;20047;-74
2022/07/31 07:31:49;;;;;;;4.70;1.10;;;26.90;35.90;;;;;;6271704;28;20378;-74
2022/07/31 07:34:50;;;;;;;1.52;1.30;;;26.90;35.40;;;;;;6271076;28;20075;-74
2022/07/31 07:38:11;;;;;;;2.40;1.55;;;27.00;35.30;;;;;;6274272;28;20036;-74
2022/07/31 07:41:12;;;;;;;1.33;1.23;;;27.10;35.10;;;;;;6287619;28;20036;-74
2022/07/31 07:44:13;;;;;;;4.72;1.40;;;27.20;34.90;;;;;;6288199;28;20075;-74
2022/07/31 07:47:14;;;;;;;2.15;1.45;;;27.30;34.50;;;;;;6306424;28;20040;-74
2022/07/31 07:50:16;;;;;;;2.95;1.60;;;27.50;34.10;;;;;;6289302;28;20032;-74
2022/07/31 07:53:52;;;;;;;2.20;1.23;;;27.60;33.70;;;;;;6289837;28;20045;-75
2022/07/31 07:57:22;;;;;;;2.03;1.17;;;27.70;33.40;;;;;;6166176;28;20070;-75
2022/07/31 08:00:41;;;;;;;2.65;1.50;;;27.80;33.10;;;;;;6166135;28;20046;-75
2022/07/31 08:03:42;;;;;;;2.22;1.48;;;27.80;32.90;;;;;;6166442;28;20094;-75
2022/07/31 08:06:43;;;;;;;1.95;1.25;;;27.80;33.20;;;;;;6166098;28;20094;-75
2022/07/31 08:09:44;;;;;;;1.77;1.48;;;27.90;33.30;;;;;;6164363;28;20074;-75
2022/07/31 08:13:17;;;;;;;2.08;1.73;;;28.00;33.20;;;;;;6143649;28;20524;-75
2022/07/31 08:16:41;;;;;;;2.08;1.55;;;28.10;33.10;;;;;;6070629;29;20375;-75
2022/07/31 08:19:42;;;;;;;2.47;1.60;;;28.40;33.00;;;;;;6075048;29;20463;-75
2022/07/31 08:22:43;;;;;;;3.53;1.55;;;28.50;32.40;;;;;;6074731;29;20076;-75
2022/07/31 08:25:44;;;;;;;4.30;1.40;;;28.70;32.30;;;;;;6066302;29;20041;-75
2022/07/31 08:28:45;;;;;;;1.50;1.10;;;28.80;31.80;;;;;;6079107;29;20045;-75
2022/07/31 08:31:46;;;;;;;3.83;1.30;;;28.90;31.80;;;;;;6075681;29;20382;-75
2022/07/31 08:35:16;;;;;;;2.35;1.35;;;29.10;31.60;;;;;;6217920;28;20112;-75
2022/07/31 08:38:18;;;;;;;2.70;1.95;;;29.20;31.20;;;;;;6202627;28;20337;-75
2022/07/31 08:41:37;;;;;;;3.88;1.83;;;29.30;31.00;;;;;;6217253;28;20034;-75
2022/07/31 08:44:40;;;;;;;3.70;1.63;;;29.50;30.70;;;;;;6181923;28;20042;-75
2022/07/31 08:47:45;;;;;;;4.72;1.73;;;29.50;30.60;;;;;;6191699;28;20042;-75
2022/07/31 08:50:49;;;;;;;1.17;1.08;;;29.60;30.50;;;;;;6192298;28;20042;-75
2022/07/31 08:54:10;;;;;;;1.50;1.40;;;29.70;30.50;;;;;;6244111;28;20040;-75
2022/07/31 08:57:12;;;;;;;1.48;1.23;;;29.80;30.00;;;;;;6267643;28;20041;-75
2022/07/31 09:00:16;;;;;;;3.25;1.52;;;30.00;30.00;;;;;;6251084;28;20056;-75
2022/07/31 09:03:17;;;;;;;6.82;1.40;;;30.10;29.90;;;;;;6271900;28;20326;-76
2022/07/31 09:06:28;;;;;;;2.95;1.40;;;30.20;29.50;;;;;;6308252;28;20361;-75
2022/07/31 09:09:30;;;;;;;2.30;1.63;;;30.20;29.30;;;;;;6258217;28;20029;-74
2022/07/31 09:12:32;;;;;;;4.60;1.42;;;30.30;29.10;;;;;;6291536;28;20036;-75
2022/07/31 09:15:38;;;;;;;1.63;1.40;;;30.30;29.00;;;;;;6291650;28;20457;-74
2022/07/31 09:18:39;;;;;;;3.70;1.67;;;30.40;28.70;;;;;;6292338;28;20265;-76
2022/07/31 09:21:44;;;;;;;7.07;1.38;;;30.30;28.60;;;;;;6291550;28;20189;-76
2022/07/31 09:24:45;;;;;;;2.90;1.30;;;30.40;28.60;;;;;;6308680;28;20041;-75
2022/07/31 09:27:47;;;;;;;4.68;1.65;;;30.50;28.60;;;;;;6291338;28;20354;-74
2022/07/31 09:30:54;;;;;;;5.38;2.53;;;30.70;28.70;;;;;;6291490;28;20445;-76
2022/07/31 09:34:25;;;;;;;5.55;1.60;;;30.80;28.70;;;;;;6286140;28;20040;-75
2022/07/31 09:37:36;;;;;;;1.88;1.50;;;30.90;28.50;;;;;;6275897;28;20032;-76
2022/07/31 09:40:55;;;;;;;5.45;1.48;;;31.10;28.50;;;;;;6290392;28;20365;-74
2022/07/31 09:44:18;;;;;;;2.55;1.30;;;31.20;28.50;;;;;;6276962;28;20036;-75
2022/07/31 09:47:28;;;;;;;1.30;1.20;;;31.30;28.20;;;;;;6261429;28;20033;-74
2022/07/31 09:50:32;;;;;;;3.97;1.17;;;31.20;28.10;;;;;;6273932;28;20037;-74
2022/07/31 09:53:44;;;;;;;2.50;1.23;;;31.30;28.10;;;;;;6290037;28;20047;-74
2022/07/31 09:57:11;;;;;;;2.72;1.30;;;31.30;28.00;;;;;;6290527;28;20052;-74
2022/07/31 10:00:15;;;;;;;1.52;1.35;;;31.30;28.00;;;;;;6280298;28;20037;-75
2022/07/31 10:03:18;;;;;;;2.42;1.58;;;31.40;28.10;;;;;;6285166;28;20492;-75
2022/07/31 10:06:24;;;;;;;2.72;1.45;;;31.50;28.00;;;;;;6292430;28;20477;-75
2022/07/31 10:09:26;;;;;;;3.35;2.70;;;31.70;27.90;;;;;;6274527;28;20136;-74
2022/07/31 10:12:50;;;;;;;7.43;1.60;;;31.70;27.90;;;;;;6293164;28;20048;-75
2022/07/31 10:15:53;;;;;;;6.22;2.17;;;31.90;27.80;;;;;;6285294;28;20091;-75
2022/07/31 10:19:21;;;;;;;1.60;1.17;;;32.00;27.80;;;;;;6269864;28;20418;-75
2022/07/31 10:22:46;;;;;;;1.65;1.20;;;32.00;27.60;;;;;;6214059;28;20033;-74
2022/07/31 10:25:57;;;;;;;3.03;1.90;;;32.00;27.50;;;;;;6214445;28;20058;-75
2022/07/31 10:28:59;;;;;;;1.80;1.23;;;32.10;27.30;;;;;;6214364;28;20042;-75
2022/07/31 10:32:00;;;;;;;4.57;2.72;;;32.10;26.90;;;;;;6214167;28;20037;-75
2022/07/31 10:35:04;;;;;;;12.07;4.68;;;32.10;26.90;;;;;;6213622;28;20078;-75
2022/07/31 10:38:35;;;;;;;7.53;1.45;;;32.10;26.60;;;;;;6197641;28;20077;-74
2022/07/31 10:42:05;;;;;;;6.03;1.88;;;32.20;26.60;;;;;;6215987;28;20065;-75
2022/07/31 10:45:12;;;;;;;3.33;1.50;;;32.20;26.70;;;;;;6205787;28;20089;-75
2022/07/31 10:48:34;;;;;;;2.63;1.50;;;32.20;26.70;;;;;;6189154;28;20042;-74
2022/07/31 10:51:52;;;;;;;3.85;1.50;;;32.30;26.50;;;;;;6195335;28;20038;-75
2022/07/31 10:55:16;;;;;;;2.08;1.50;;;32.40;26.30;;;;;;6214668;28;20054;-74
2022/07/31 10:58:51;;;;;;;4.03;1.80;;;32.50;26.10;;;;;;6226034;28;20025;-74
2022/07/31 11:02:29;;;;;;;3.13;1.58;;;32.70;26.10;;;;;;6274076;28;20098;-74
2022/07/31 11:05:59;;;;;;;4.35;1.25;;;32.90;26.00;;;;;;6278889;28;20381;-75
2022/07/31 11:09:23;;;;;;;1.10;1.00;;;33.80;25.50;;;;;;6290231;28;20048;-75
2022/07/31 11:12:37;;;;;;;;;;;34.70;24.90;;;;;;6288344;28;20043;-74
2022/07/31 11:16:04;;;;;;;1.27;1.17;;;35.50;24.10;;;;;;6274060;28;19951;-74
2022/07/31 11:19:18;;;;;;;1.87;1.17;;;36.10;23.70;;;;;;6288975;28;20567;-74
2022/07/31 11:22:19;;;;;;;3.20;1.65;;;36.70;23.20;;;;;;6291467;28;20039;-75
2022/07/31 11:25:21;;;;;;;1.52;1.02;;;36.90;22.90;;;;;;6289719;28;20025;-75
2022/07/31 11:28:23;;;;;;;3.70;1.30;;;37.00;22.70;;;;;;6289525;28;20111;-75
2022/07/31 11:31:29;;;;;;;2.50;1.10;;;37.00;22.70;;;;;;6290535;28;20408;-75
2022/07/31 11:34:30;;;;;;;1.33;1.08;;;37.00;22.70;;;;;;6290043;28;20113;-74
2022/07/31 11:37:31;;;;;;;4.30;1.35;;;37.30;22.70;;;;;;6271437;28;20145;-75
2022/07/31 11:40:33;;;;;;;1.17;1.00;;;37.40;22.40;;;;;;6287037;28;20147;-75
2022/07/31 11:43:36;;;;;;;4.22;0.98;;;37.50;22.30;;;;;;6296086;28;20116;-75
2022/07/31 11:46:37;;;;;;;4.78;1.10;;;37.70;22.10;;;;;;6265162;28;20067;-76
2022/07/31 11:49:38;;;;;;;3.22;1.08;;;37.90;21.80;;;;;;6262331;28;20037;-75
2022/07/31 11:52:42;;;;;;;1.20;1.08;;;38.10;21.80;;;;;;6249786;28;20041;-75
2022/07/31 11:55:43;;;;;;;1.45;1.02;;;38.10;21.60;;;;;;6267847;28;20428;-74
2022/07/31 11:58:52;;;;;;;1.42;1.20;;;37.90;21.50;;;;;;6250876;28;20044;-74
2022/07/31 12:01:53;;;;;;;5.13;2.08;;;38.00;21.50;;;;;;6279273;28;20036;-74
2022/07/31 12:04:54;;;;;;;2.08;1.15;;;38.00;21.40;;;;;;6294141;28;20509;-75
2022/07/31 12:07:55;;;;;;;2.17;1.10;;;37.80;21.50;;;;;;6295345;28;21602;-74
2022/07/31 12:10:58;;;;;;;1.38;1.05;;;37.80;21.50;;;;;;6297046;28;20035;-75
2022/07/31 12:13:59;;;;;;;2.42;1.27;;;38.00;21.40;;;;;;6296140;28;20519;-73
2022/07/31 12:17:02;;;;;;;1.20;0.93;;;38.20;21.20;;;;;;6294142;28;20037;-74
2022/07/31 12:20:08;;;;;;;4.97;0.95;;;38.20;21.10;;;;;;6276596;28;20054;-74
2022/07/31 12:23:10;;;;;;;3.63;1.00;;;38.10;21.10;;;;;;6270097;28;20036;-76
2022/07/31 12:26:21;;;;;;;1.40;1.00;;;38.20;21.00;;;;;;6269869;28;20040;-75
2022/07/31 12:29:34;;;;;;;1.55;0.98;;;38.10;20.90;;;;;;6269972;28;20103;-75
2022/07/31 12:32:35;;;;;;;1.73;1.05;;;38.20;20.90;;;;;;6283319;28;20259;-75
2022/07/31 12:35:38;;;;;;;0.82;0.80;;;38.30;20.70;;;;;;6295839;28;20048;-75
2022/07/31 12:38:39;;;;;;;3.00;0.80;;;38.10;20.60;;;;;;6300702;28;20040;-74
2022/07/31 12:41:43;;;;;;;2.42;1.00;;;38.20;20.60;;;;;;6297063;28;20064;-75
2022/07/31 12:44:48;;;;;;;1.15;0.90;;;38.20;20.60;;;;;;6274919;28;20041;-74
2022/07/31 12:47:53;;;;;;;1.48;1.10;;;38.40;20.40;;;;;;6271252;28;20045;-74
2022/07/31 12:50:54;;;;;;;2.03;1.20;;;38.50;20.30;;;;;;6271338;28;20033;-74
2022/07/31 12:53:55;;;;;;;1.30;0.95;;;38.80;20.20;;;;;;6253653;28;20037;-74
2022/07/31 12:56:56;;;;;;;3.53;1.00;;;39.20;19.80;;;;;;6271608;28;20065;-74
2022/07/31 12:59:57;;;;;;;1.95;0.82;;;39.30;19.60;;;;;;6272492;28;20086;-74
2022/07/31 13:02:58;;;;;;;4.75;1.23;;;39.40;20.00;;;;;;6289182;28;20033;-74
2022/07/31 13:05:58;;;;;;;0.70;0.60;;;39.50;19.40;;;;;;6296686;28;20040;-74
2022/07/31 13:08:59;;;;;;;1.58;1.00;;;40.00;19.00;;;;;;6278303;28;20120;-75
2022/07/31 13:12:00;;;;;;;2.97;1.00;;;40.60;18.70;;;;;;6295580;28;20178;-75
2022/07/31 13:15:02;;;;;;;1.30;1.17;;;41.30;18.30;;;;;;6286397;28;20120;-76
2022/07/31 13:18:06;;;;;;;2.20;0.90;;;41.80;17.80;;;;;;6286287;28;20103;-75
2022/07/31 13:21:07;;;;;;;1.33;0.93;;;42.30;17.50;;;;;;6287533;28;20025;-75
2022/07/31 13:24:08;;;;;;;1.00;0.90;;;42.70;17.10;;;;;;6270804;28;20365;-75
2022/07/31 13:27:09;;;;;;;1.48;1.10;;;43.20;16.90;;;;;;6270952;28;20362;-75
2022/07/31 13:30:10;;;;;;;0.80;0.80;;;43.80;16.60;;;;;;6270376;28;20029;-75
2022/07/31 13:33:11;;;;;;;3.38;1.00;;;44.50;16.10;;;;;;6293218;28;20088;-75
2022/07/31 13:36:12;;;;;;;4.22;1.13;;;45.00;15.80;;;;;;6278011;28;20137;-75
2022/07/31 13:39:13;;;;;;;1.20;0.93;;;44.80;15.70;;;;;;6294594;28;20036;-75
2022/07/31 13:42:14;;;;;;;1.55;1.00;;;45.00;15.70;;;;;;6295845;28;20024;-75
2022/07/31 13:45:15;;;;;;;4.07;0.93;;;45.50;15.50;;;;;;6286382;28;20040;-75
2022/07/31 13:48:16;;;;;;;2.95;0.98;;;45.90;15.10;;;;;;6251603;28;20040;-75
2022/07/31 13:51:17;;;;;;;1.63;0.98;;;46.10;15.00;;;;;;6269366;28;20029;-75
2022/07/31 13:54:18;;;;;;;6.10;0.95;;;46.20;14.90;;;;;;6270520;28;20155;-75
2022/07/31 13:57:19;;;;;;;1.50;1.00;;;46.20;15.00;;;;;;6269589;28;20033;-75
2022/07/31 14:00:20;;;;;;;7.38;0.95;;;46.30;14.90;;;;;;6252920;28;20036;-75
2022/07/31 14:03:22;;;;;;;5.25;1.10;;;46.50;14.70;;;;;;6306491;28;20032;-75
2022/07/31 14:06:23;;;;;;;1.83;1.20;;;46.90;14.60;;;;;;6293673;28;20032;-75
2022/07/31 14:09:24;;;;;;;2.85;0.80;;;46.90;14.40;;;;;;6300243;28;20043;-74
2022/07/31 14:12:25;;;;;;;4.68;0.90;;;46.50;14.70;;;;;;6299111;28;20059;-74
2022/07/31 14:15:26;;;;;;;1.27;0.90;;;46.10;14.80;;;;;;6291055;28;20032;-75
2022/07/31 14:18:31;;;;;;;1.70;1.00;;;46.20;14.90;;;;;;6294010;28;20059;-74
2022/07/31 14:21:33;;;;;;;7.22;1.10;;;46.20;14.90;;;;;;6277544;28;20028;-74
2022/07/31 14:24:36;;;;;;;1.70;1.00;;;46.10;14.80;;;;;;6309806;28;20134;-74
2022/07/31 14:27:40;;;;;;;2.33;1.00;;;46.00;15.00;;;;;;6295571;28;20461;-74
2022/07/31 14:30:45;;;;;;;2.60;1.13;;;46.10;15.00;;;;;;6294871;28;20043;-74
2022/07/31 14:33:46;;;;;;;1.38;1.00;;;46.30;14.80;;;;;;6295188;28;20052;-76
2022/07/31 14:36:47;;;;;;;1.10;1.00;;;46.50;14.70;;;;;;6296210;28;20427;-76
2022/07/31 14:39:48;;;;;;;2.95;0.77;;;46.60;14.60;;;;;;6283739;28;20040;-75
2022/07/31 14:42:48;;;;;;;1.10;0.93;;;47.10;14.50;;;;;;6295247;28;20131;-75
2022/07/31 14:45:50;;;;;;;1.77;1.02;;;47.40;14.20;;;;;;6295417;28;20044;-75
2022/07/31 14:48:51;;;;;;;1.73;1.10;;;47.20;14.20;;;;;;6295699;28;20041;-75
2022/07/31 14:51:51;;;;;;;2.63;1.23;;;47.10;14.40;;;;;;6296431;28;20055;-75
2022/07/31 14:54:54;;;;;;;3.40;1.10;;;47.20;14.20;;;;;;6294719;28;20064;-75
2022/07/31 14:57:56;;;;;;;1.63;0.95;;;46.80;14.40;;;;;;6286822;28;20480;-75
2022/07/31 15:00:58;;;;;;;4.15;0.90;;;45.30;15.20;;;;;;6295018;28;20037;-75
2022/07/31 15:03:59;;;;;;;1.60;1.08;;;43.70;16.20;;;;;;6277526;28;20043;-75
2022/07/31 15:07:00;;;;;;;2.47;1.00;;;42.40;16.90;;;;;;6294143;28;20032;-75
2022/07/31 15:10:05;;;;;;;2.47;1.20;;;41.40;17.60;;;;;;6294871;28;20029;-75
2022/07/31 15:13:06;;;;;;;1.95;1.13;;;40.60;18.30;;;;;;6308849;28;20523;-76
2022/07/31 15:16:08;;;;;;;1.67;1.10;;;39.80;18.90;;;;;;6300928;28;20082;-75
2022/07/31 15:19:09;;;;;;;3.22;1.23;;;39.10;19.50;;;;;;6269087;28;20029;-74
2022/07/31 15:22:10;;;;;;;3.92;1.30;;;38.50;19.80;;;;;;6295777;28;20412;-75
2022/07/31 15:25:11;;;;;;;3.78;1.30;;;38.20;20.40;;;;;;6311879;28;20029;-75
2022/07/31 15:28:12;;;;;;;2.25;1.00;;;37.70;20.90;;;;;;6299598;28;20032;-75
2022/07/31 15:31:15;;;;;;;3.83;1.30;;;38.00;20.60;;;;;;6296094;28;20025;-74
2022/07/31 15:34:16;;;;;;;1.42;1.30;;;39.30;19.70;;;;;;6299343;28;20032;-76
2022/07/31 15:37:17;;;;;;;3.13;0.88;;;40.50;18.80;;;;;;6281842;28;20060;-75
2022/07/31 15:40:18;;;;;;;4.10;1.10;;;41.60;18.00;;;;;;6282503;28;20043;-76
2022/07/31 15:43:19;;;;;;;2.95;1.00;;;42.50;17.30;;;;;;6274078;28;20366;-75
2022/07/31 15:46:20;;;;;;;1.20;1.10;;;43.30;16.90;;;;;;6273523;28;20037;-76
2022/07/31 15:49:21;;;;;;;1.05;0.93;;;44.00;16.50;;;;;;6266359;28;20040;-73
2022/07/31 15:52:21;;;;;;;2.10;1.13;;;44.40;16.30;;;;;;6299650;28;20031;-75
2022/07/31 15:55:22;;;;;;;1.92;0.98;;;44.50;16.00;;;;;;6298959;28;20481;-75
2022/07/31 15:58:23;;;;;;;6.47;1.10;;;44.70;16.00;;;;;;6315459;28;20427;-75
2022/07/31 16:01:24;;;;;;;5.78;1.30;;;44.70;15.90;;;;;;6298253;28;20047;-75
2022/07/31 16:04:25;;;;;;;3.30;1.20;;;44.90;15.70;;;;;;6281286;28;20353;-75